sensor_id;sensor_type;location;lat;lon;timestamp;pressure;altitude;pressure_sealevel;temperature;humidity
74163;BME280;62515;52.758;5.076;2023-04-16T00:01:05;102388.28;;;7.35;100.00
74163;BME280;62515;52.758;5.076;2023-04-16T00:03:34;102395.31;;;7.36;100.00
74163;BME280;62515;52.758;5.076;2023-04-16T00:06:01;102393.69;;;7.32;100.00
74163;BME280;62515;52.758;5.076;2023-04-16T00:10:56;102393.69;;;7.32;100.00
74163;BME280;62515;52.758;5.076;2023-04-16T00:13:22;102386.56;;;7.34;100.00
74163;BME280;62515;52.758;5.076;2023-04-16T00:15:49;102384.81;;;7.33;100.00
74163;BME280;62515;52.758;5.076;2023-04-16T00:18:16;102388.16;;;7.38;100.00
74163;BME280;62515;52.758;5.076;2023-04-16T00:20:44;102383.81;;;7.37;100.00
74163;BME280;62515;52.758;5.076;2023-04-16T00:23:11;102381.97;;;7.39;100.00
74163;BME280;62515;52.758;5.076;2023-04-16T00:25:38;102376.72;;;7.38;100.00
74163;BME280;62515;52.758;5.076;2023-04-16T00:28:05;102374.94;;;7.38;100.00
74163;BME280;62515;52.758;5.076;2023-04-16T00:30:31;102385.47;;;7.40;100.00
74163;BME280;62515;52.758;5.076;2023-04-16T00:32:58;102379.31;;;7.39;100.00
74163;BME280;62515;52.758;5.076;2023-04-16T00:35:25;102381.94;;;7.41;100.00
74163;BME280;62515;52.758;5.076;2023-04-16T00:37:53;102386.25;;;7.43;100.00
74163;BME280;62515;52.758;5.076;2023-04-16T00:40:20;102383.63;;;7.42;100.00
74163;BME280;62515;52.758;5.076;2023-04-16T00:42:47;102389.81;;;7.42;100.00
74163;BME280;62515;52.758;5.076;2023-04-16T00:45:14;102373.03;;;7.42;100.00
74163;BME280;62515;52.758;5.076;2023-04-16T00:47:41;102379.22;;;7.42;100.00
74163;BME280;62515;52.758;5.076;2023-04-16T00:50:09;102381.75;;;7.45;100.00
74163;BME280;62515;52.758;5.076;2023-04-16T00:52:37;102380.94;;;7.43;100.00
74163;BME280;62515;52.758;5.076;2023-04-16T00:55:07;102375.75;;;7.40;100.00
74163;BME280;62515;52.758;5.076;2023-04-16T00:57:35;102385.16;;;7.49;100.00
74163;BME280;62515;52.758;5.076;2023-04-16T01:00:02;102379.00;;;7.48;100.00
74163;BME280;62515;52.758;5.076;2023-04-16T01:02:29;102379.00;;;7.48;100.00
74163;BME280;62515;52.758;5.076;2023-04-16T01:04:56;102383.47;;;7.48;100.00
74163;BME280;62515;52.758;5.076;2023-04-16T01:07:22;102372.09;;;7.44;100.00
74163;BME280;62515;52.758;5.076;2023-04-16T01:09:49;102379.97;;;7.46;100.00
74163;BME280;62515;52.758;5.076;2023-04-16T01:12:17;102384.19;;;7.51;100.00
74163;BME280;62515;52.758;5.076;2023-04-16T01:14:44;102379.72;;;7.53;100.00
74163;BME280;62515;52.758;5.076;2023-04-16T01:17:11;102374.47;;;7.52;100.00
74163;BME280;62515;52.758;5.076;2023-04-16T01:19:38;102379.66;;;7.55;100.00
74163;BME280;62515;52.758;5.076;2023-04-16T01:22:06;102376.09;;;7.56;100.00
74163;BME280;62515;52.758;5.076;2023-04-16T01:24:33;102382.16;;;7.59;100.00
74163;BME280;62515;52.758;5.076;2023-04-16T01:27:00;102376.06;;;7.57;100.00
74163;BME280;62515;52.758;5.076;2023-04-16T01:29:27;102379.53;;;7.58;100.00
74163;BME280;62515;52.758;5.076;2023-04-16T01:31:56;102375.88;;;7.62;100.00
74163;BME280;62515;52.758;5.076;2023-04-16T01:34:26;102380.31;;;7.61;100.00
74163;BME280;62515;52.758;5.076;2023-04-16T01:36:52;102376.75;;;7.62;100.00
74163;BME280;62515;52.758;5.076;2023-04-16T01:39:20;102382.91;;;7.63;100.00
74163;BME280;62515;52.758;5.076;2023-04-16T01:41:47;102379.41;;;7.62;100.00
74163;BME280;62515;52.758;5.076;2023-04-16T01:44:14;102381.94;;;7.65;100.00
74163;BME280;62515;52.758;5.076;2023-04-16T01:46:41;102385.44;;;7.66;100.00
74163;BME280;62515;52.758;5.076;2023-04-16T01:49:09;102383.69;;;7.66;100.00
74163;BME280;62515;52.758;5.076;2023-04-16T01:51:36;102384.53;;;7.67;100.00
74163;BME280;62515;52.758;5.076;2023-04-16T01:54:03;102388.97;;;7.66;100.00
74163;BME280;62515;52.758;5.076;2023-04-16T01:56:31;102378.47;;;7.63;100.00
74163;BME280;62515;52.758;5.076;2023-04-16T01:58:58;102388.97;;;7.66;100.00
74163;BME280;62515;52.758;5.076;2023-04-16T02:01:30;102396.06;;;7.66;100.00
74163;BME280;62515;52.758;5.076;2023-04-16T02:03:57;102395.06;;;7.68;100.00
74163;BME280;62515;52.758;5.076;2023-04-16T02:06:25;102403.13;;;7.65;100.00
74163;BME280;62515;52.758;5.076;2023-04-16T02:08:52;102388.97;;;7.66;100.00
74163;BME280;62515;52.758;5.076;2023-04-16T02:11:19;102392.53;;;7.65;100.00
74163;BME280;62515;52.758;5.076;2023-04-16T02:13:49;102388.00;;;7.69;100.00
74163;BME280;62515;52.758;5.076;2023-04-16T02:16:17;102396.06;;;7.66;100.00
74163;BME280;62515;52.758;5.076;2023-04-16T02:18:49;102382.81;;;7.66;100.00
74163;BME280;62515;52.758;5.076;2023-04-16T02:21:17;102383.69;;;7.66;100.00
74163;BME280;62515;52.758;5.076;2023-04-16T02:23:45;102390.69;;;7.67;100.00
74163;BME280;62515;52.758;5.076;2023-04-16T02:26:12;102386.38;;;7.65;100.00
74163;BME280;62515;52.758;5.076;2023-04-16T02:28:40;102398.75;;;7.64;100.00
74163;BME280;62515;52.758;5.076;2023-04-16T02:31:10;102388.03;;;7.67;100.00
74163;BME280;62515;52.758;5.076;2023-04-16T02:33:42;102396.94;;;7.66;100.00
74163;BME280;62515;52.758;5.076;2023-04-16T02:36:09;102403.91;;;7.69;100.00
74163;BME280;62515;52.758;5.076;2023-04-16T02:38:36;102395.25;;;7.64;100.00
74163;BME280;62515;52.758;5.076;2023-04-16T02:41:02;102395.91;;;7.70;100.00
74163;BME280;62515;52.758;5.076;2023-04-16T02:43:30;102406.56;;;7.67;100.00
74163;BME280;62515;52.758;5.076;2023-04-16T02:45:57;102400.44;;;7.67;100.00
74163;BME280;62515;52.758;5.076;2023-04-16T02:48:25;102411.72;;;7.72;100.00
74163;BME280;62515;52.758;5.076;2023-04-16T02:50:52;102403.78;;;7.72;100.00
74163;BME280;62515;52.758;5.076;2023-04-16T02:53:18;102408.22;;;7.71;100.00
74163;BME280;62515;52.758;5.076;2023-04-16T02:55:49;102405.56;;;7.71;100.00
74163;BME280;62515;52.758;5.076;2023-04-16T02:58:16;102406.41;;;7.73;100.00
74163;BME280;62515;52.758;5.076;2023-04-16T03:00:43;102406.50;;;7.70;100.00
74163;BME280;62515;52.758;5.076;2023-04-16T03:03:10;102415.25;;;7.72;100.00
74163;BME280;62515;52.758;5.076;2023-04-16T03:05:38;102409.88;;;7.74;100.00
74163;BME280;62515;52.758;5.076;2023-04-16T03:08:06;102416.16;;;7.71;100.00
74163;BME280;62515;52.758;5.076;2023-04-16T03:10:33;102415.16;;;7.75;100.00
74163;BME280;62515;52.758;5.076;2023-04-16T03:13:00;102413.47;;;7.73;100.00
74163;BME280;62515;52.758;5.076;2023-04-16T03:15:27;102415.25;;;7.72;100.00
74163;BME280;62515;52.758;5.076;2023-04-16T03:17:54;102419.66;;;7.73;100.00
74163;BME280;62515;52.758;5.076;2023-04-16T03:20:21;102423.09;;;7.75;100.00
74163;BME280;62515;52.758;5.076;2023-04-16T03:22:50;102423.22;;;7.72;100.00
74163;BME280;62515;52.758;5.076;2023-04-16T03:25:17;102424.06;;;7.73;100.00
74163;BME280;62515;52.758;5.076;2023-04-16T03:27:44;102424.06;;;7.73;100.00
74163;BME280;62515;52.758;5.076;2023-04-16T03:30:13;102420.59;;;7.71;100.00
74163;BME280;62515;52.758;5.076;2023-04-16T03:32:40;102422.41;;;7.70;100.00
74163;BME280;62515;52.758;5.076;2023-04-16T03:35:08;102422.34;;;7.72;100.00
74163;BME280;62515;52.758;5.076;2023-04-16T03:37:36;102428.50;;;7.72;100.00
74163;BME280;62515;52.758;5.076;2023-04-16T03:40:05;102427.59;;;7.73;100.00
74163;BME280;62515;52.758;5.076;2023-04-16T03:42:33;102424.13;;;7.71;100.00
74163;BME280;62515;52.758;5.076;2023-04-16T03:45:01;102429.63;;;7.65;100.00
74163;BME280;62515;52.758;5.076;2023-04-16T03:47:28;102430.28;;;7.72;100.00
74163;BME280;62515;52.758;5.076;2023-04-16T03:49:58;102426.72;;;7.73;100.00
74163;BME280;62515;52.758;5.076;2023-04-16T03:52:26;102440.88;;;7.72;100.00
74163;BME280;62515;52.758;5.076;2023-04-16T03:54:53;102434.72;;;7.71;100.00
74163;BME280;62515;52.758;5.076;2023-04-16T03:57:27;102430.19;;;7.75;100.00
74163;BME280;62515;52.758;5.076;2023-04-16T04:00:00;102433.81;;;7.72;100.00
74163;BME280;62515;52.758;5.076;2023-04-16T04:02:39;102443.59;;;7.70;100.00
74163;BME280;62515;52.758;5.076;2023-04-16T04:05:13;102446.16;;;7.73;100.00
74163;BME280;62515;52.758;5.076;2023-04-16T04:07:40;102438.31;;;7.70;100.00
74163;BME280;62515;52.758;5.076;2023-04-16T04:10:08;102432.06;;;7.71;100.00
74163;BME280;62515;52.758;5.076;2023-04-16T04:12:39;102435.59;;;7.72;100.00
74163;BME280;62515;52.758;5.076;2023-04-16T04:15:07;102431.31;;;7.68;100.00
74163;BME280;62515;52.758;5.076;2023-04-16T04:17:34;102435.72;;;7.67;100.00
74163;BME280;62515;52.758;5.076;2023-04-16T04:20:01;102434.94;;;7.65;100.00
74163;BME280;62515;52.758;5.076;2023-04-16T04:22:30;102436.59;;;7.68;100.00
74163;BME280;62515;52.758;5.076;2023-04-16T04:24:56;102442.84;;;7.67;100.00
74163;BME280;62515;52.758;5.076;2023-04-16T04:27:25;102438.47;;;7.64;100.00
74163;BME280;62515;52.758;5.076;2023-04-16T04:29:54;102438.47;;;7.64;100.00
74163;BME280;62515;52.758;5.076;2023-04-16T04:32:21;102435.03;;;7.62;100.00
74163;BME280;62515;52.758;5.076;2023-04-16T04:34:48;102449.09;;;7.64;100.00
74163;BME280;62515;52.758;5.076;2023-04-16T04:37:15;102442.97;;;7.62;100.00
74163;BME280;62515;52.758;5.076;2023-04-16T04:39:42;102441.31;;;7.60;100.00
74163;BME280;62515;52.758;5.076;2023-04-16T04:42:11;102444.84;;;7.60;100.00
74163;BME280;62515;52.758;5.076;2023-04-16T04:44:38;102448.38;;;7.59;100.00
74163;BME280;62515;52.758;5.076;2023-04-16T04:47:08;102445.63;;;7.62;100.00
74163;BME280;62515;52.758;5.076;2023-04-16T04:49:35;102446.59;;;7.60;100.00
74163;BME280;62515;52.758;5.076;2023-04-16T04:52:02;102448.41;;;7.58;100.00
74163;BME280;62515;52.758;5.076;2023-04-16T04:54:31;102453.56;;;7.62;100.00
74163;BME280;62515;52.758;5.076;2023-04-16T04:56:58;102446.53;;;7.61;100.00
74163;BME280;62515;52.758;5.076;2023-04-16T04:59:26;102452.78;;;7.60;100.00
74163;BME280;62515;52.758;5.076;2023-04-16T05:01:53;102447.38;;;7.63;100.00
74163;BME280;62515;52.758;5.076;2023-04-16T05:04:21;102447.38;;;7.63;100.00
74163;BME280;62515;52.758;5.076;2023-04-16T05:06:48;102454.38;;;7.64;100.00
74163;BME280;62515;52.758;5.076;2023-04-16T05:09:14;102455.44;;;7.60;100.00
74163;BME280;62515;52.758;5.076;2023-04-16T05:11:41;102461.53;;;7.62;100.00
74163;BME280;62515;52.758;5.076;2023-04-16T05:14:08;102460.72;;;7.60;100.00
74163;BME280;62515;52.758;5.076;2023-04-16T05:16:35;102465.09;;;7.61;100.00
74163;BME280;62515;52.758;5.076;2023-04-16T05:19:03;102466.16;;;7.56;100.00
74163;BME280;62515;52.758;5.076;2023-04-16T05:21:31;102467.13;;;7.53;100.00
74163;BME280;62515;52.758;5.076;2023-04-16T05:23:59;102467.13;;;7.53;100.00
74163;BME280;62515;52.758;5.076;2023-04-16T05:26:25;102461.75;;;7.56;100.00
74163;BME280;62515;52.758;5.076;2023-04-16T05:28:52;102465.25;;;7.57;100.00
74163;BME280;62515;52.758;5.076;2023-04-16T05:31:19;102471.47;;;7.56;100.00
74163;BME280;62515;52.758;5.076;2023-04-16T05:33:46;102478.41;;;7.60;100.00
74163;BME280;62515;52.758;5.076;2023-04-16T05:36:13;102471.34;;;7.59;100.00
74163;BME280;62515;52.758;5.076;2023-04-16T05:38:41;102479.28;;;7.60;100.00
74163;BME280;62515;52.758;5.076;2023-04-16T05:41:08;102479.31;;;7.59;100.00
74163;BME280;62515;52.758;5.076;2023-04-16T05:43:34;102484.59;;;7.59;100.00
74163;BME280;62515;52.758;5.076;2023-04-16T05:46:02;102479.38;;;7.57;100.00
74163;BME280;62515;52.758;5.076;2023-04-16T05:48:28;102479.38;;;7.57;100.00
74163;BME280;62515;52.758;5.076;2023-04-16T05:50:55;102482.06;;;7.56;100.00
74163;BME280;62515;52.758;5.076;2023-04-16T05:53:22;102480.19;;;7.59;100.00
74163;BME280;62515;52.758;5.076;2023-04-16T05:55:50;102480.13;;;7.61;100.00
74163;BME280;62515;52.758;5.076;2023-04-16T05:58:17;102484.56;;;7.60;100.00
74163;BME280;62515;52.758;5.076;2023-04-16T06:00:44;102493.28;;;7.64;100.00
74163;BME280;62515;52.758;5.076;2023-04-16T06:03:11;102487.16;;;7.62;100.00
74163;BME280;62515;52.758;5.076;2023-04-16T06:05:38;102489.75;;;7.63;100.00
74163;BME280;62515;52.758;5.076;2023-04-16T06:08:04;102498.53;;;7.65;100.00
74163;BME280;62515;52.758;5.076;2023-04-16T06:10:31;102495.88;;;7.65;100.00
74163;BME280;62515;52.758;5.076;2023-04-16T06:12:59;102489.66;;;7.66;100.00
74163;BME280;62515;52.758;5.076;2023-04-16T06:15:26;102493.19;;;7.67;100.00
74163;BME280;62515;52.758;5.076;2023-04-16T06:17:54;102491.47;;;7.64;100.00
74163;BME280;62515;52.758;5.076;2023-04-16T06:20:21;102491.38;;;7.67;100.00
74163;BME280;62515;52.758;5.076;2023-04-16T06:22:48;102489.50;;;7.71;100.00
74163;BME280;62515;52.758;5.076;2023-04-16T06:25:15;102493.97;;;7.69;100.00
74163;BME280;62515;52.758;5.076;2023-04-16T06:27:43;102500.94;;;7.73;100.00
74163;BME280;62515;52.758;5.076;2023-04-16T06:30:12;102508.78;;;7.76;100.00
74163;BME280;62515;52.758;5.076;2023-04-16T06:32:40;102505.16;;;7.78;100.00
74163;BME280;62515;52.758;5.076;2023-04-16T06:35:08;102505.16;;;7.78;100.00
74163;BME280;62515;52.758;5.076;2023-04-16T06:37:36;102504.22;;;7.79;100.00
74163;BME280;62515;52.758;5.076;2023-04-16T06:40:04;102496.44;;;7.75;100.00
74163;BME280;62515;52.758;5.076;2023-04-16T06:42:31;102512.94;;;7.83;100.00
74163;BME280;62515;52.758;5.076;2023-04-16T06:44:58;102517.28;;;7.85;100.00
74163;BME280;62515;52.758;5.076;2023-04-16T06:47:26;102518.16;;;7.86;100.00
74163;BME280;62515;52.758;5.076;2023-04-16T06:49:53;102516.31;;;7.88;100.00
74163;BME280;62515;52.758;5.076;2023-04-16T06:52:19;102519.06;;;7.85;100.00
74163;BME280;62515;52.758;5.076;2023-04-16T06:54:46;102519.03;;;7.86;100.00
74163;BME280;62515;52.758;5.076;2023-04-16T06:57:13;102524.44;;;7.83;100.00
74163;BME280;62515;52.758;5.076;2023-04-16T06:59:40;102524.50;;;7.80;100.00
74163;BME280;62515;52.758;5.076;2023-04-16T07:02:08;102536.94;;;7.78;100.00
74163;BME280;62515;52.758;5.076;2023-04-16T07:04:37;102532.38;;;7.83;100.00
74163;BME280;62515;52.758;5.076;2023-04-16T07:07:04;102530.47;;;7.87;100.00
74163;BME280;62515;52.758;5.076;2023-04-16T07:09:31;102533.94;;;7.89;100.00
74163;BME280;62515;52.758;5.076;2023-04-16T07:11:58;102527.88;;;7.85;100.00
74163;BME280;62515;52.758;5.076;2023-04-16T07:14:24;102523.38;;;7.87;100.00
74163;BME280;62515;52.758;5.076;2023-04-16T07:16:51;102541.91;;;7.89;100.00
74163;BME280;62515;52.758;5.076;2023-04-16T07:19:18;102540.22;;;7.86;100.00
74163;BME280;62515;52.758;5.076;2023-04-16T07:21:46;102540.13;;;7.89;100.00
74163;BME280;62515;52.758;5.076;2023-04-16T07:24:13;102543.56;;;7.92;100.00
74163;BME280;62515;52.758;5.076;2023-04-16T07:26:40;102541.03;;;7.88;100.00
74163;BME280;62515;52.758;5.076;2023-04-16T07:29:07;102546.19;;;7.93;100.00
74163;BME280;62515;52.758;5.076;2023-04-16T07:31:34;102552.31;;;7.94;100.00
74163;BME280;62515;52.758;5.076;2023-04-16T07:34:01;102545.97;;;7.99;100.00
74163;BME280;62515;52.758;5.076;2023-04-16T07:36:28;102553.88;;;8.01;100.00
74163;BME280;62515;52.758;5.076;2023-04-16T07:38:57;102557.44;;;8.00;100.00
74163;BME280;62515;52.758;5.076;2023-04-16T07:41:24;102555.59;;;8.02;100.00
74163;BME280;62515;52.758;5.076;2023-04-16T07:43:51;102553.81;;;8.02;100.00
74163;BME280;62515;52.758;5.076;2023-04-16T07:46:18;102558.19;;;8.03;100.00
74163;BME280;62515;52.758;5.076;2023-04-16T07:48:45;102561.72;;;8.04;100.00
74163;BME280;62515;52.758;5.076;2023-04-16T07:51:12;102560.81;;;8.05;100.00
74163;BME280;62515;52.758;5.076;2023-04-16T07:53:39;102567.84;;;8.06;100.00
74163;BME280;62515;52.758;5.076;2023-04-16T07:56:09;102565.13;;;8.07;100.00
74163;BME280;62515;52.758;5.076;2023-04-16T07:58:35;102566.00;;;8.08;100.00
74163;BME280;62515;52.758;5.076;2023-04-16T08:01:02;102563.13;;;8.14;100.00
74163;BME280;62515;52.758;5.076;2023-04-16T08:03:29;102575.63;;;8.10;100.00
74163;BME280;62515;52.758;5.076;2023-04-16T08:05:57;102568.66;;;8.08;100.00
74163;BME280;62515;52.758;5.076;2023-04-16T08:08:24;102572.09;;;8.10;100.00
74163;BME280;62515;52.758;5.076;2023-04-16T08:10:51;102583.59;;;8.10;100.00
74163;BME280;62515;52.758;5.076;2023-04-16T08:13:19;102568.44;;;8.14;100.00
74163;BME280;62515;52.758;5.076;2023-04-16T08:15:45;102575.63;;;8.10;100.00
74163;BME280;62515;52.758;5.076;2023-04-16T08:18:12;102576.47;;;8.12;100.00
74163;BME280;62515;52.758;5.076;2023-04-16T08:20:39;102587.75;;;8.17;100.00
74163;BME280;62515;52.758;5.076;2023-04-16T08:23:06;102589.63;;;8.15;100.00
74163;BME280;62515;52.758;5.076;2023-04-16T08:25:33;102587.72;;;8.19;100.00
74163;BME280;62515;52.758;5.076;2023-04-16T08:27:59;102591.22;;;8.19;100.00
74163;BME280;62515;52.758;5.076;2023-04-16T08:30:28;102593.56;;;8.30;100.00
74163;BME280;62515;52.758;5.076;2023-04-16T08:32:54;102592.84;;;8.23;100.00
74163;BME280;62515;52.758;5.076;2023-04-16T08:35:21;102595.59;;;8.22;100.00
74163;BME280;62515;52.758;5.076;2023-04-16T08:37:48;102590.28;;;8.22;100.00
74163;BME280;62515;52.758;5.076;2023-04-16T08:40:15;102586.44;;;8.32;100.00
74163;BME280;62515;52.758;5.076;2023-04-16T08:42:44;102589.41;;;8.21;100.00
74163;BME280;62515;52.758;5.076;2023-04-16T08:45:15;102595.34;;;8.29;100.00
74163;BME280;62515;52.758;5.076;2023-04-16T08:47:46;102599.72;;;8.30;100.00
74163;BME280;62515;52.758;5.076;2023-04-16T08:50:15;102599.47;;;8.38;100.00
74163;BME280;62515;52.758;5.076;2023-04-16T08:52:45;102602.78;;;8.45;100.00
74163;BME280;62515;52.758;5.076;2023-04-16T08:55:18;102614.09;;;8.50;100.00
74163;BME280;62515;52.758;5.076;2023-04-16T08:57:49;102594.88;;;8.43;100.00
74163;BME280;62515;52.758;5.076;2023-04-16T09:00:16;102609.97;;;8.41;100.00
74163;BME280;62515;52.758;5.076;2023-04-16T09:02:45;102607.97;;;8.48;100.00
74163;BME280;62515;52.758;5.076;2023-04-16T09:05:14;102615.72;;;8.54;100.00
74163;BME280;62515;52.758;5.076;2023-04-16T09:07:41;102616.63;;;8.53;100.00
74163;BME280;62515;52.758;5.076;2023-04-16T09:10:09;102615.75;;;8.52;100.00
74163;BME280;62515;52.758;5.076;2023-04-16T09:12:36;102620.22;;;8.52;100.00
74163;BME280;62515;52.758;5.076;2023-04-16T09:15:04;102624.56;;;8.54;100.00
74163;BME280;62515;52.758;5.076;2023-04-16T09:17:33;102623.84;;;8.49;100.00
74163;BME280;62515;52.758;5.076;2023-04-16T09:20:01;102622.22;;;8.45;100.00
74163;BME280;62515;52.758;5.076;2023-04-16T09:22:28;102624.78;;;8.48;100.00
74163;BME280;62515;52.758;5.076;2023-04-16T09:25:41;102620.81;;;8.60;100.00
74163;BME280;62515;52.758;5.076;2023-04-16T09:29:05;102620.78;;;8.61;100.00
74163;BME280;62515;52.758;5.076;2023-04-16T09:32:48;102620.88;;;8.58;100.00
74163;BME280;62515;52.758;5.076;2023-04-16T09:42:40;102627.88;;;8.61;100.00
74163;BME280;62515;52.758;5.076;2023-04-16T09:45:10;102631.56;;;8.55;100.00
74163;BME280;62515;52.758;5.076;2023-04-16T09:47:38;102631.84;;;8.72;100.00
74163;BME280;62515;52.758;5.076;2023-04-16T09:50:06;102633.22;;;8.59;100.00
74163;BME280;62515;52.758;5.076;2023-04-16T09:52:35;102639.81;;;8.72;100.00
74163;BME280;62515;52.758;5.076;2023-04-16T09:55:03;102631.06;;;8.70;100.00
74163;BME280;62515;52.758;5.076;2023-04-16T09:57:30;102643.00;;;8.82;100.00
74163;BME280;62515;52.758;5.076;2023-04-16T10:00:03;102644.03;;;8.78;100.00
74163;BME280;62515;52.758;5.076;2023-04-16T10:02:30;102642.88;;;8.86;100.00
74163;BME280;62515;52.758;5.076;2023-04-16T10:05:00;102643.63;;;8.90;100.00
74163;BME280;62515;52.758;5.076;2023-04-16T10:07:27;102649.81;;;8.90;100.00
74163;BME280;62515;52.758;5.076;2023-04-16T10:09:55;102644.75;;;8.83;100.00
74163;BME280;62515;52.758;5.076;2023-04-16T10:12:22;102645.56;;;8.85;100.00
74163;BME280;62515;52.758;5.076;2023-04-16T10:14:49;102650.38;;;8.99;100.00
74163;BME280;62515;52.758;5.076;2023-04-16T10:17:18;102652.00;;;9.03;100.00
74163;BME280;62515;52.758;5.076;2023-04-16T10:19:45;102651.38;;;8.96;100.00
74163;BME280;62515;52.758;5.076;2023-04-16T10:22:12;102647.38;;;9.08;100.00
74163;BME280;62515;52.758;5.076;2023-04-16T10:24:40;102652.03;;;9.26;100.00
74163;BME280;62515;52.758;5.076;2023-04-16T10:27:07;102654.22;;;9.15;100.00
74163;BME280;62515;52.758;5.076;2023-04-16T10:29:34;102660.50;;;9.12;100.00
74163;BME280;62515;52.758;5.076;2023-04-16T10:32:02;102643.69;;;9.12;100.00
74163;BME280;62515;52.758;5.076;2023-04-16T10:34:31;102654.69;;;9.26;100.00
74163;BME280;62515;52.758;5.076;2023-04-16T10:36:58;102656.25;;;9.31;100.00
74163;BME280;62515;52.758;5.076;2023-04-16T10:39:27;102651.97;;;9.72;100.00
74163;BME280;62515;52.758;5.076;2023-04-16T10:42:06;102660.91;;;9.71;100.00
74163;BME280;62515;52.758;5.076;2023-04-16T10:44:33;102658.69;;;9.59;100.00
74163;BME280;62515;52.758;5.076;2023-04-16T10:47:00;102651.59;;;9.60;100.00
74163;BME280;62515;52.758;5.076;2023-04-16T10:49:27;102674.44;;;9.42;100.00
74163;BME280;62515;52.758;5.076;2023-04-16T10:51:56;102671.31;;;9.31;100.00
74163;BME280;62515;52.758;5.076;2023-04-16T10:54:25;102662.06;;;9.41;100.00
74163;BME280;62515;52.758;5.076;2023-04-16T10:56:55;102663.06;;;9.62;100.00
74163;BME280;62515;52.758;5.076;2023-04-16T10:59:23;102663.88;;;9.85;100.00
74163;BME280;62515;52.758;5.076;2023-04-16T11:01:52;102659.25;;;9.69;100.00
74163;BME280;62515;52.758;5.076;2023-04-16T11:04:27;102668.50;;;9.59;100.00
74163;BME280;62515;52.758;5.076;2023-04-16T11:07:04;102659.97;;;9.72;100.00
74163;BME280;62515;52.758;5.076;2023-04-16T11:10:02;102655.97;;;9.84;100.00
74163;BME280;62515;52.758;5.076;2023-04-16T11:12:33;102658.56;;;10.07;100.00
74163;BME280;62515;52.758;5.076;2023-04-16T11:15:02;102659.78;;;9.77;100.00
74163;BME280;62515;52.758;5.076;2023-04-16T11:17:31;102658.09;;;9.97;100.00
74163;BME280;62515;52.758;5.076;2023-04-16T11:19:58;102655.56;;;9.94;100.00
74163;BME280;62515;52.758;5.076;2023-04-16T11:22:27;102649.53;;;9.89;100.00
74163;BME280;62515;52.758;5.076;2023-04-16T11:24:54;102653.38;;;10.04;100.00
74163;BME280;62515;52.758;5.076;2023-04-16T11:27:22;102645.69;;;9.96;100.00
74163;BME280;62515;52.758;5.076;2023-04-16T11:29:56;102656.22;;;9.99;100.00
74163;BME280;62515;52.758;5.076;2023-04-16T11:32:23;102644.00;;;10.17;100.00
74163;BME280;62515;52.758;5.076;2023-04-16T11:34:50;102659.44;;;10.08;100.00
74163;BME280;62515;52.758;5.076;2023-04-16T11:37:19;102653.44;;;10.03;100.00
74163;BME280;62515;52.758;5.076;2023-04-16T11:39:49;102659.09;;;10.17;100.00
74163;BME280;62515;52.758;5.076;2023-04-16T11:42:20;102656.19;;;10.23;100.00
74163;BME280;62515;52.758;5.076;2023-04-16T11:44:52;102653.00;;;10.13;100.00
74163;BME280;62515;52.758;5.076;2023-04-16T11:47:19;102659.97;;;10.17;100.00
74163;BME280;62515;52.758;5.076;2023-04-16T11:49:46;102665.69;;;10.07;100.00
74163;BME280;62515;52.758;5.076;2023-04-16T11:52:14;102663.69;;;10.12;100.00
74163;BME280;62515;52.758;5.076;2023-04-16T11:54:51;102663.94;;;10.06;100.00
74163;BME280;62515;52.758;5.076;2023-04-16T11:57:23;102673.34;;;9.92;100.00
74163;BME280;62515;52.758;5.076;2023-04-16T11:59:50;102670.56;;;9.95;100.00
74163;BME280;62515;52.758;5.076;2023-04-16T12:02:39;102674.47;;;10.09;100.00
74163;BME280;62515;52.758;5.076;2023-04-16T12:05:25;102679.44;;;10.18;100.00
74163;BME280;62515;52.758;5.076;2023-04-16T12:07:52;102676.00;;;9.92;100.00
74163;BME280;62515;52.758;5.076;2023-04-16T12:10:21;102680.09;;;10.01;100.00
74163;BME280;62515;52.758;5.076;2023-04-16T12:12:48;102676.44;;;10.04;100.00
74163;BME280;62515;52.758;5.076;2023-04-16T12:15:15;102672.34;;;9.95;100.00
74163;BME280;62515;52.758;5.076;2023-04-16T12:17:42;102682.81;;;9.99;100.00
74163;BME280;62515;52.758;5.076;2023-04-16T12:20:10;102684.81;;;9.94;100.00
74163;BME280;62515;52.758;5.076;2023-04-16T12:22:39;102680.22;;;9.98;100.00
74163;BME280;62515;52.758;5.076;2023-04-16T12:25:06;102677.25;;;10.06;100.00
74163;BME280;62515;52.758;5.076;2023-04-16T12:27:47;102681.38;;;10.14;100.00
74163;BME280;62515;52.758;5.076;2023-04-16T12:30:20;102674.69;;;10.26;100.00
74163;BME280;62515;52.758;5.076;2023-04-16T12:32:48;102678.25;;;10.67;100.00
74163;BME280;62515;52.758;5.076;2023-04-16T12:35:28;102673.28;;;10.59;100.00
74163;BME280;62515;52.758;5.076;2023-04-16T12:37:55;102675.91;;;10.39;100.00
74163;BME280;62515;52.758;5.076;2023-04-16T12:40:22;102673.16;;;10.40;100.00
74163;BME280;62515;52.758;5.076;2023-04-16T12:42:50;102678.19;;;10.48;100.00
74163;BME280;62515;52.758;5.076;2023-04-16T12:45:17;102680.72;;;10.71;100.00
74163;BME280;62515;52.758;5.076;2023-04-16T12:47:44;102670.94;;;10.52;100.00
74163;BME280;62515;52.758;5.076;2023-04-16T12:50:10;102675.13;;;10.37;100.00
74163;BME280;62515;52.758;5.076;2023-04-16T12:52:37;102681.09;;;10.42;100.00
74163;BME280;62515;52.758;5.076;2023-04-16T12:55:05;102677.38;;;10.24;100.00
74163;BME280;62515;52.758;5.076;2023-04-16T12:57:32;102688.16;;;10.63;100.00
74163;BME280;62515;52.758;5.076;2023-04-16T13:00:00;102679.19;;;10.45;100.00
74163;BME280;62515;52.758;5.076;2023-04-16T13:02:27;102688.44;;;10.57;100.00
74163;BME280;62515;52.758;5.076;2023-04-16T13:04:55;102688.56;;;10.34;100.00